createdAt,value
2019-05-10T00:02:30.943Z,3.30
2019-05-10T00:05:53.673Z,2.87
2019-05-10T00:08:57.837Z,3.50
2019-05-10T00:12:14.591Z,3.80
2019-05-10T00:15:22.010Z,3.10
2019-05-10T00:18:26.945Z,3.60
2019-05-10T00:21:31.862Z,3.47
2019-05-10T00:24:36.933Z,4.10
2019-05-10T00:27:41.917Z,3.07
2019-05-10T00:30:47.000Z,3.30
2019-05-10T00:33:52.121Z,2.83
2019-05-10T00:36:57.138Z,3.33
2019-05-10T00:40:02.152Z,3.33
2019-05-10T00:43:07.161Z,3.50
2019-05-10T00:46:12.097Z,2.90
2019-05-10T00:49:17.118Z,3.00
2019-05-10T00:52:22.120Z,3.03
2019-05-10T00:55:27.154Z,3.03
2019-05-10T00:58:32.087Z,2.40
2019-05-10T01:01:37.135Z,3.30
2019-05-10T01:04:42.070Z,2.80
2019-05-10T01:07:47.136Z,3.13
2019-05-10T01:10:52.094Z,3.00
2019-05-10T01:13:57.049Z,3.13
2019-05-10T01:17:02.100Z,2.80
2019-05-10T01:20:08.063Z,2.70
2019-05-10T01:23:13.061Z,3.30
2019-05-10T01:26:18.147Z,3.40
2019-05-10T01:29:23.150Z,2.80
2019-05-10T01:32:28.182Z,3.20
2019-05-10T01:35:33.178Z,3.30
2019-05-10T01:38:38.127Z,3.30
2019-05-10T01:41:43.202Z,3.23
2019-05-10T01:44:48.223Z,3.63
2019-05-10T01:47:53.146Z,3.83
2019-05-10T01:50:58.235Z,4.63
2019-05-10T01:54:03.265Z,4.30
2019-05-10T01:57:08.317Z,3.53
2019-05-10T02:00:14.130Z,3.63
2019-05-10T02:03:19.150Z,4.13
2019-05-10T02:06:24.087Z,3.67
2019-05-10T02:09:32.923Z,3.60
2019-05-10T02:12:35.815Z,3.63
2019-05-10T02:15:40.851Z,3.47
2019-05-10T02:18:45.778Z,3.57
2019-05-10T02:21:50.795Z,3.40
2019-05-10T02:24:55.718Z,3.37
2019-05-10T02:28:00.671Z,3.73
2019-05-10T02:31:05.756Z,3.20
2019-05-10T02:34:10.827Z,3.37
2019-05-10T02:37:15.768Z,3.90
2019-05-10T02:40:20.956Z,3.30
2019-05-10T02:43:25.960Z,3.60
2019-05-10T02:46:31.042Z,3.60
2019-05-10T02:49:36.111Z,3.70
2019-05-10T02:52:41.130Z,3.73
2019-05-10T02:55:46.999Z,3.70
2019-05-10T02:58:54.923Z,3.70
2019-05-10T03:02:02.951Z,4.20
2019-05-10T03:05:09.844Z,3.60
2019-05-10T03:08:15.789Z,4.40
2019-05-10T03:11:20.874Z,3.93
2019-05-10T03:14:28.877Z,4.20
2019-05-10T03:17:35.369Z,4.47
2019-05-10T03:20:41.135Z,4.77
2019-05-10T03:23:46.917Z,4.23
2019-05-10T03:26:51.975Z,4.00
2019-05-10T03:29:57.023Z,4.90
2019-05-10T03:33:02.114Z,4.10
2019-05-10T03:36:07.318Z,4.77
2019-05-10T03:39:12.332Z,4.80
2019-05-10T03:42:17.504Z,4.27
2019-05-10T03:45:22.434Z,4.80
2019-05-10T03:48:27.439Z,4.93
2019-05-10T03:51:32.365Z,4.63
2019-05-10T03:54:37.304Z,5.37
2019-05-10T03:57:42.233Z,5.30
2019-05-10T04:00:47.249Z,5.10
2019-05-10T04:03:52.180Z,5.20
2019-05-10T04:06:57.189Z,6.03
2019-05-10T04:10:02.263Z,5.20
2019-05-10T04:13:07.275Z,5.03
2019-05-10T04:16:12.212Z,5.70
2019-05-10T04:19:17.211Z,5.40
2019-05-10T04:22:22.235Z,5.60
2019-05-10T04:25:27.595Z,6.00
2019-05-10T04:28:32.996Z,6.30
2019-05-10T04:31:38.243Z,6.13
2019-05-10T04:34:43.599Z,5.60
2019-05-10T04:37:48.824Z,6.90
2019-05-10T04:40:53.751Z,5.93
2019-05-10T04:43:58.680Z,6.33
2019-05-10T04:47:03.618Z,6.30
2019-05-10T04:50:08.863Z,6.80
2019-05-10T04:53:13.894Z,6.77
2019-05-10T04:56:18.826Z,7.27
2019-05-10T04:59:25.395Z,7.00
2019-05-10T05:02:30.495Z,5.53
2019-05-10T05:05:35.523Z,5.87
2019-05-10T05:08:40.540Z,5.70
2019-05-10T05:11:45.638Z,6.30
2019-05-10T05:14:50.647Z,6.63
2019-05-10T05:17:55.678Z,5.93
2019-05-10T05:21:00.913Z,6.07
2019-05-10T05:24:06.113Z,5.33
2019-05-10T05:27:11.047Z,4.97
2019-05-10T05:30:16.417Z,6.87
2019-05-10T05:33:21.342Z,5.07
2019-05-10T05:36:26.271Z,5.50
2019-05-10T05:39:31.230Z,4.90
2019-05-10T05:42:36.294Z,5.63
2019-05-10T05:45:41.311Z,5.57
2019-05-10T05:48:46.429Z,5.10
2019-05-10T05:51:51.487Z,4.83
2019-05-10T05:54:57.471Z,4.97
2019-05-10T05:58:04.895Z,5.47
2019-05-10T06:01:10.000Z,4.70
2019-05-10T06:04:15.001Z,5.53
2019-05-10T06:07:20.730Z,4.90
2019-05-10T06:10:25.648Z,5.17
2019-05-10T06:13:32.360Z,5.10
2019-05-10T06:16:37.350Z,4.80
2019-05-10T06:19:42.369Z,5.00
2019-05-10T06:23:04.189Z,4.70
2019-05-10T06:25:54.110Z,4.50
2019-05-10T06:29:03.824Z,4.47
2019-05-10T06:32:05.920Z,3.80
2019-05-10T06:35:14.272Z,4.90
2019-05-10T06:38:17.699Z,4.33
2019-05-10T06:41:22.635Z,4.47
2019-05-10T06:44:31.367Z,4.03
2019-05-10T06:47:34.346Z,3.80
2019-05-10T06:50:39.354Z,4.33
2019-05-10T06:53:52.163Z,3.60
2019-05-10T06:56:51.022Z,3.73
2019-05-10T06:59:57.031Z,4.57
2019-05-10T07:03:02.702Z,3.80
2019-05-10T07:06:07.715Z,3.27
2019-05-10T07:09:12.659Z,3.70
2019-05-10T07:12:18.507Z,3.97
2019-05-10T07:15:23.773Z,3.97
2019-05-10T07:18:28.844Z,3.70
2019-05-10T07:21:33.774Z,2.60
2019-05-10T07:24:38.702Z,3.70
2019-05-10T07:27:44.258Z,4.30
2019-05-10T07:30:49.284Z,3.50
2019-05-10T07:33:54.403Z,3.07
2019-05-10T07:37:01.782Z,2.57
2019-05-10T07:40:06.971Z,2.47
2019-05-10T07:43:11.986Z,2.77
2019-05-10T07:46:16.924Z,2.50
2019-05-10T07:49:30.000Z,2.37
2019-05-10T07:52:30.702Z,2.20
2019-05-10T07:55:35.811Z,2.37
2019-05-10T07:58:43.283Z,2.50
2019-05-10T08:01:49.201Z,3.03
2019-05-10T08:04:54.246Z,1.87
2019-05-10T08:07:59.321Z,2.23
2019-05-10T08:11:04.349Z,2.53
2019-05-10T08:14:11.213Z,1.83
2019-05-10T08:17:16.185Z,2.33
2019-05-10T08:20:38.316Z,2.30
2019-05-10T08:23:28.279Z,2.17
2019-05-10T08:26:33.457Z,2.23
2019-05-10T08:29:38.533Z,2.53
2019-05-10T08:32:43.594Z,2.00
2019-05-10T08:35:54.897Z,1.83
2019-05-10T08:39:05.153Z,2.30
2019-05-10T08:42:13.586Z,2.50
2019-05-10T08:45:09.817Z,2.27
2019-05-10T08:48:14.743Z,2.00
2019-05-10T08:51:19.763Z,2.17
2019-05-10T08:54:26.427Z,1.60
2019-05-10T08:57:34.871Z,1.80
2019-05-10T09:00:49.684Z,2.47
2019-05-10T09:03:47.062Z,2.30
2019-05-10T09:06:55.384Z,2.43
2019-05-10T09:09:58.091Z,1.93
2019-05-10T09:13:03.512Z,2.10
2019-05-10T09:16:08.738Z,1.73
2019-05-10T09:19:13.681Z,1.73
2019-05-10T09:22:26.012Z,1.90
2019-05-10T09:25:29.549Z,1.87
2019-05-10T09:28:32.303Z,2.53
2019-05-10T09:31:39.317Z,2.60
2019-05-10T09:34:44.015Z,2.53
2019-05-10T09:37:54.075Z,3.60
2019-05-10T09:40:56.394Z,4.23
2019-05-10T09:44:03.020Z,2.50
2019-05-10T09:47:08.307Z,3.70
2019-05-10T09:50:13.611Z,2.77
2019-05-10T09:53:25.386Z,2.00
2019-05-10T09:56:27.543Z,2.23
2019-05-10T09:59:32.180Z,2.00
2019-05-10T10:02:37.296Z,2.10
2019-05-10T10:05:43.767Z,1.87
2019-05-10T10:08:53.204Z,1.70
2019-05-10T10:11:59.285Z,1.93
2019-05-10T10:15:02.087Z,2.47
2019-05-10T10:18:07.235Z,1.90
2019-05-10T10:21:13.199Z,1.87
2019-05-10T10:24:20.277Z,2.20
2019-05-10T10:27:33.812Z,2.20
2019-05-10T10:30:32.106Z,1.80
2019-05-10T10:33:37.940Z,1.77
2019-05-10T10:36:44.530Z,2.13
2019-05-10T10:39:49.530Z,1.80
2019-05-10T10:42:54.478Z,1.70
2019-05-10T10:45:59.402Z,1.83
2019-05-10T10:49:05.488Z,1.80
2019-05-10T10:52:13.315Z,2.40
2019-05-10T10:55:18.647Z,2.13
2019-05-10T10:58:23.900Z,1.70
2019-05-10T11:01:44.783Z,1.60
2019-05-10T11:04:40.409Z,1.77
2019-05-10T11:07:47.317Z,1.63
2019-05-10T11:10:50.714Z,2.10
2019-05-10T11:14:00.659Z,1.80
2019-05-10T11:17:02.454Z,2.50
2019-05-10T11:20:09.260Z,1.93
2019-05-10T11:23:16.174Z,2.03
2019-05-10T11:26:21.721Z,2.10
2019-05-10T11:29:28.099Z,1.90
2019-05-10T11:32:33.580Z,2.40
2019-05-10T11:35:38.574Z,1.80
2019-05-10T11:38:46.965Z,2.30
2019-05-10T11:41:52.838Z,2.03
2019-05-10T11:44:57.026Z,1.83
2019-05-10T11:48:02.399Z,1.80
2019-05-10T11:51:12.328Z,2.03
2019-05-10T11:54:14.438Z,2.27
2019-05-10T11:57:21.769Z,1.70
2019-05-10T12:00:31.975Z,2.03
2019-05-10T12:03:32.950Z,1.87
2019-05-10T12:06:41.253Z,2.10
2019-05-10T12:09:44.661Z,2.13
2019-05-10T12:13:04.854Z,1.97
2019-05-10T12:15:56.303Z,1.70
2019-05-10T12:19:10.705Z,2.03
2019-05-10T12:22:08.124Z,1.87
2019-05-10T12:25:36.231Z,2.00
2019-05-10T12:28:23.991Z,1.50
2019-05-10T12:31:26.530Z,2.27
2019-05-10T12:34:31.483Z,2.43
2019-05-10T12:37:39.599Z,1.73
2019-05-10T12:40:45.727Z,1.93
2019-05-10T12:43:51.740Z,1.90
2019-05-10T12:46:56.470Z,1.90
2019-05-10T12:50:02.283Z,1.73
2019-05-10T12:53:14.189Z,1.80
2019-05-10T12:56:14.779Z,2.80
2019-05-10T12:59:19.733Z,1.77
2019-05-10T13:02:24.815Z,2.23
2019-05-10T13:05:31.977Z,1.73
2019-05-10T13:08:36.591Z,1.60
2019-05-10T13:11:43.199Z,1.90
2019-05-10T13:14:52.520Z,1.97
2019-05-10T13:17:54.811Z,2.53
2019-05-10T13:20:59.910Z,2.20
2019-05-10T13:24:04.979Z,1.83
2019-05-10T13:27:09.995Z,2.53
2019-05-10T13:30:15.852Z,2.00
2019-05-10T13:33:29.020Z,2.23
2019-05-10T13:36:30.567Z,2.00
2019-05-10T13:39:34.226Z,1.30
2019-05-10T13:42:43.395Z,1.10
2019-05-10T13:45:46.017Z,1.27
2019-05-10T13:48:51.018Z,1.90
2019-05-10T13:51:56.058Z,1.63
2019-05-10T13:55:01.060Z,1.83
2019-05-10T13:58:06.163Z,1.80
2019-05-10T14:01:13.165Z,1.60
2019-05-10T14:04:17.999Z,1.80
2019-05-10T14:07:23.017Z,1.40
2019-05-10T14:10:28.183Z,1.20
2019-05-10T14:13:35.568Z,1.40
2019-05-10T14:16:39.847Z,1.37
2019-05-10T14:19:44.801Z,1.70
2019-05-10T14:22:55.651Z,1.60
2019-05-10T14:25:56.562Z,1.20
2019-05-10T14:29:04.549Z,1.80
2019-05-10T14:32:09.493Z,1.40
2019-05-10T14:35:16.330Z,2.13
2019-05-10T14:38:23.013Z,1.63
2019-05-10T14:41:27.920Z,1.47
2019-05-10T14:44:32.872Z,1.70
2019-05-10T14:47:46.353Z,1.80
2019-05-10T14:50:46.752Z,2.00
2019-05-10T14:53:51.269Z,1.60
2019-05-10T14:56:56.194Z,1.70
2019-05-10T15:00:01.220Z,1.60
2019-05-10T15:03:06.247Z,1.70
2019-05-10T15:06:11.270Z,1.83
2019-05-10T15:09:21.684Z,1.83
2019-05-10T15:12:22.946Z,1.43
2019-05-10T15:15:31.068Z,1.50
2019-05-10T15:18:34.959Z,1.50
2019-05-10T15:21:39.984Z,1.43
2019-05-10T15:24:44.952Z,1.30
2019-05-10T15:27:54.745Z,1.90
2019-05-10T15:30:58.654Z,1.90
2019-05-10T15:34:05.177Z,2.03
2019-05-10T15:37:10.771Z,1.63
2019-05-10T15:40:16.167Z,2.40
2019-05-10T15:43:21.254Z,1.70
2019-05-10T15:46:35.748Z,1.53
2019-05-10T15:49:34.578Z,2.37
2019-05-10T15:55:46.343Z,3.27
2019-05-10T15:58:51.354Z,2.17
2019-05-10T15:59:23.580Z,2.60
2019-05-10T16:01:56.377Z,4.13
2019-05-10T16:05:01.446Z,3.73
2019-05-10T16:08:06.574Z,4.47
2019-05-10T16:11:18.787Z,2.13
2019-05-10T16:14:18.272Z,2.30
2019-05-10T16:17:24.136Z,2.13
2019-05-10T16:20:31.607Z,2.60
2019-05-10T16:23:36.106Z,2.30
2019-05-10T16:26:41.179Z,2.50
2019-05-10T16:29:46.135Z,2.60
2019-05-10T16:32:51.067Z,2.83
2019-05-10T16:35:56.174Z,2.37
2019-05-10T16:39:02.045Z,2.40
2019-05-10T16:42:07.231Z,3.30
2019-05-10T16:45:12.635Z,5.93
2019-05-10T16:48:17.586Z,6.63
2019-05-10T16:51:22.603Z,4.30
2019-05-10T16:54:27.613Z,5.00
2019-05-10T16:57:37.356Z,3.77
2019-05-10T17:00:40.710Z,4.90
2019-05-10T17:03:51.136Z,1.53
2019-05-10T17:06:54.890Z,2.40
2019-05-10T17:09:59.323Z,5.10
2019-05-10T17:13:05.344Z,1.90
2019-05-10T17:16:11.627Z,2.93
2019-05-10T17:19:17.873Z,2.20
2019-05-10T17:22:22.821Z,2.23
2019-05-10T17:25:47.038Z,1.90
2019-05-10T17:28:52.242Z,2.13
2019-05-10T17:31:57.278Z,2.50
2019-05-10T17:35:04.899Z,6.80
2019-05-10T17:38:14.267Z,1.67
2019-05-10T17:41:19.342Z,2.10
2019-05-10T17:44:23.134Z,3.07
2019-05-10T17:47:32.435Z,7.00
2019-05-10T17:50:35.619Z,3.43
2019-05-10T17:53:40.659Z,3.40
2019-05-10T17:56:47.958Z,3.57
2019-05-10T17:59:54.627Z,3.30
2019-05-10T18:02:59.769Z,2.30
2019-05-10T18:06:05.098Z,2.20
2019-05-10T18:09:10.184Z,3.07
2019-05-10T18:12:15.684Z,2.60
2019-05-10T18:15:22.023Z,2.87
2019-05-10T18:18:26.952Z,2.47
2019-05-10T18:21:31.917Z,3.40
2019-05-10T18:24:41.873Z,4.00
2019-05-10T18:27:43.503Z,3.67
2019-05-10T18:30:48.531Z,2.67
2019-05-10T18:33:55.664Z,5.00
2019-05-10T18:37:00.166Z,3.20
2019-05-10T18:40:05.518Z,4.20
2019-05-10T18:43:10.533Z,3.70
2019-05-10T18:46:15.550Z,4.10
2019-05-10T18:49:21.525Z,3.53
2019-05-10T18:52:26.588Z,3.60
2019-05-10T18:55:31.607Z,3.03
2019-05-10T18:58:36.611Z,2.77
2019-05-10T19:01:41.620Z,3.00
2019-05-10T19:04:52.050Z,3.57
2019-05-10T19:08:03.222Z,3.63
2019-05-10T19:11:00.224Z,6.63
2019-05-10T19:14:05.400Z,3.83
2019-05-10T19:17:11.088Z,4.90
2019-05-10T19:20:18.484Z,3.83
2019-05-10T19:23:23.789Z,4.10
2019-05-10T19:26:29.569Z,4.23
2019-05-10T19:29:38.764Z,8.57
2019-05-10T19:32:42.139Z,3.40
2019-05-10T19:35:47.151Z,2.90
2019-05-10T19:38:52.079Z,3.70
2019-05-10T19:42:03.650Z,3.47
2019-05-10T19:45:03.886Z,3.33
2019-05-10T19:48:08.914Z,4.30
2019-05-10T19:51:13.900Z,4.37
2019-05-10T19:54:21.076Z,5.37
2019-05-10T19:57:26.560Z,5.70
2019-05-10T20:00:32.208Z,5.47
2019-05-10T20:03:37.793Z,6.20
2019-05-10T20:07:02.186Z,6.63
2019-05-10T20:10:08.472Z,6.30
2019-05-10T20:13:13.435Z,5.90
2019-05-10T20:16:18.515Z,6.20
2019-05-10T20:19:23.531Z,6.13
2019-05-10T20:22:28.462Z,6.40
2019-05-10T20:25:33.423Z,7.50
2019-05-10T20:28:38.550Z,5.90
2019-05-10T20:31:43.698Z,6.33
2019-05-10T20:34:48.642Z,5.40
2019-05-10T20:38:01.986Z,5.50
2019-05-10T20:41:00.742Z,5.00
2019-05-10T20:44:05.866Z,4.10
2019-05-10T20:47:10.875Z,5.10
2019-05-10T20:50:15.966Z,5.43
2019-05-10T20:53:20.970Z,4.77
2019-05-10T20:56:25.902Z,5.43
2019-05-10T20:59:30.826Z,5.40
2019-05-10T21:02:35.774Z,5.43
2019-05-10T21:05:40.729Z,5.70
2019-05-10T21:08:45.700Z,3.70
2019-05-10T21:11:50.653Z,4.50
2019-05-10T21:14:55.581Z,4.50
2019-05-10T21:18:00.520Z,4.77
2019-05-10T21:21:05.595Z,6.83
2019-05-10T21:24:10.593Z,8.70
2019-05-10T21:27:15.591Z,7.20
2019-05-10T21:30:20.691Z,5.63
2019-05-10T21:33:25.687Z,4.63
2019-05-10T21:36:30.769Z,4.70
2019-05-10T21:39:35.770Z,5.43
2019-05-10T21:42:40.697Z,6.20
2019-05-10T21:45:45.772Z,7.10
2019-05-10T21:48:50.730Z,5.30
2019-05-10T21:51:55.740Z,6.83
2019-05-10T21:55:00.685Z,6.00
2019-05-10T21:58:05.797Z,6.77
2019-05-10T22:01:10.878Z,5.87
2019-05-10T22:04:16.022Z,6.37
2019-05-10T22:07:21.099Z,6.40
2019-05-10T22:10:26.011Z,5.67
2019-05-10T22:13:31.022Z,6.23
2019-05-10T22:16:36.014Z,7.30
2019-05-10T22:19:41.119Z,5.90
2019-05-10T22:22:46.054Z,6.10
2019-05-10T22:25:50.990Z,6.63
2019-05-10T22:28:55.920Z,5.87
2019-05-10T22:32:00.847Z,8.53
2019-05-10T22:35:06.154Z,7.53
2019-05-10T22:38:11.175Z,6.80
2019-05-10T22:41:16.098Z,7.13
2019-05-10T22:44:21.039Z,7.00
2019-05-10T22:47:26.056Z,5.80
2019-05-10T22:50:30.994Z,6.30
2019-05-10T22:53:35.931Z,6.20
2019-05-10T22:56:42.218Z,6.07
2019-05-10T22:59:47.133Z,6.70
2019-05-10T23:02:52.058Z,6.90
2019-05-10T23:05:57.003Z,6.90
2019-05-10T23:09:01.937Z,7.40
2019-05-10T23:12:06.866Z,7.70
2019-05-10T23:15:11.948Z,8.10
2019-05-10T23:18:16.872Z,7.53
2019-05-10T23:21:21.873Z,7.77
2019-05-10T23:24:37.320Z,8.17
2019-05-10T23:27:42.344Z,8.67
2019-05-10T23:30:47.281Z,8.67
2019-05-10T23:33:52.221Z,8.23
2019-05-10T23:36:57.246Z,7.80
2019-05-10T23:40:02.254Z,9.23
2019-05-10T23:43:07.270Z,8.63
2019-05-10T23:46:12.279Z,10.40
2019-05-10T23:49:17.235Z,10.93
2019-05-10T23:52:22.230Z,9.80
2019-05-10T23:55:27.244Z,9.10
2019-05-10T23:58:32.171Z,8.20
